sensor_id;sensor_type;location;lat;lon;timestamp;P1;durP1;ratioP1;P2;durP2;ratioP2
8397;SDS011;4236;54.504;9.588;2023-04-25T00:02:26;21.80;;;14.40;;
8397;SDS011;4236;54.504;9.588;2023-04-25T00:04:54;19.83;;;15.10;;
8397;SDS011;4236;54.504;9.588;2023-04-25T00:07:24;25.97;;;14.73;;
8397;SDS011;4236;54.504;9.588;2023-04-25T00:09:52;16.80;;;14.67;;
8397;SDS011;4236;54.504;9.588;2023-04-25T00:12:20;27.83;;;16.50;;
8397;SDS011;4236;54.504;9.588;2023-04-25T00:14:49;21.80;;;16.60;;
8397;SDS011;4236;54.504;9.588;2023-04-25T00:17:18;28.33;;;15.60;;
8397;SDS011;4236;54.504;9.588;2023-04-25T00:19:46;16.80;;;14.30;;
8397;SDS011;4236;54.504;9.588;2023-04-25T00:22:14;21.43;;;15.40;;
8397;SDS011;4236;54.504;9.588;2023-04-25T00:24:42;28.33;;;14.83;;
8397;SDS011;4236;54.504;9.588;2023-04-25T00:27:09;20.43;;;14.43;;
8397;SDS011;4236;54.504;9.588;2023-04-25T00:29:38;23.23;;;15.73;;
8397;SDS011;4236;54.504;9.588;2023-04-25T00:32:05;19.87;;;14.90;;
8397;SDS011;4236;54.504;9.588;2023-04-25T00:34:34;23.07;;;14.50;;
8397;SDS011;4236;54.504;9.588;2023-04-25T00:37:02;22.07;;;15.50;;
8397;SDS011;4236;54.504;9.588;2023-04-25T00:39:30;22.17;;;15.33;;
8397;SDS011;4236;54.504;9.588;2023-04-25T00:41:58;21.70;;;14.70;;
8397;SDS011;4236;54.504;9.588;2023-04-25T00:44:25;18.93;;;15.47;;
8397;SDS011;4236;54.504;9.588;2023-04-25T00:46:55;21.77;;;15.50;;
8397;SDS011;4236;54.504;9.588;2023-04-25T00:49:23;19.80;;;15.43;;
8397;SDS011;4236;54.504;9.588;2023-04-25T00:51:52;16.53;;;14.90;;
8397;SDS011;4236;54.504;9.588;2023-04-25T00:54:20;17.10;;;14.83;;
8397;SDS011;4236;54.504;9.588;2023-04-25T00:56:48;22.70;;;15.40;;
8397;SDS011;4236;54.504;9.588;2023-04-25T00:59:16;17.03;;;14.73;;
8397;SDS011;4236;54.504;9.588;2023-04-25T01:01:45;29.03;;;15.13;;
8397;SDS011;4236;54.504;9.588;2023-04-25T01:04:14;15.00;;;13.50;;
8397;SDS011;4236;54.504;9.588;2023-04-25T01:06:41;17.57;;;14.17;;
8397;SDS011;4236;54.504;9.588;2023-04-25T01:09:10;19.50;;;13.73;;
8397;SDS011;4236;54.504;9.588;2023-04-25T01:11:39;16.07;;;13.57;;
8397;SDS011;4236;54.504;9.588;2023-04-25T01:14:07;28.17;;;15.20;;
8397;SDS011;4236;54.504;9.588;2023-04-25T01:16:35;17.87;;;14.83;;
8397;SDS011;4236;54.504;9.588;2023-04-25T01:19:04;15.97;;;14.63;;
8397;SDS011;4236;54.504;9.588;2023-04-25T01:21:38;21.67;;;15.13;;
8397;SDS011;4236;54.504;9.588;2023-04-25T01:24:06;21.13;;;15.10;;
8397;SDS011;4236;54.504;9.588;2023-04-25T01:26:34;27.83;;;16.00;;
8397;SDS011;4236;54.504;9.588;2023-04-25T01:29:03;17.27;;;15.40;;
8397;SDS011;4236;54.504;9.588;2023-04-25T01:31:31;18.10;;;15.63;;
8397;SDS011;4236;54.504;9.588;2023-04-25T01:34:00;17.17;;;15.40;;
8397;SDS011;4236;54.504;9.588;2023-04-25T01:36:28;17.90;;;14.80;;
8397;SDS011;4236;54.504;9.588;2023-04-25T01:38:58;23.47;;;16.23;;
8397;SDS011;4236;54.504;9.588;2023-04-25T01:41:25;25.63;;;14.20;;
8397;SDS011;4236;54.504;9.588;2023-04-25T01:43:54;17.13;;;15.40;;
8397;SDS011;4236;54.504;9.588;2023-04-25T01:46:22;22.23;;;14.53;;
8397;SDS011;4236;54.504;9.588;2023-04-25T01:48:50;19.47;;;15.03;;
8397;SDS011;4236;54.504;9.588;2023-04-25T01:51:18;24.03;;;14.63;;
8397;SDS011;4236;54.504;9.588;2023-04-25T01:53:46;15.53;;;13.73;;
8397;SDS011;4236;54.504;9.588;2023-04-25T01:56:15;20.10;;;14.47;;
8397;SDS011;4236;54.504;9.588;2023-04-25T01:58:45;18.40;;;14.03;;
8397;SDS011;4236;54.504;9.588;2023-04-25T02:01:12;20.10;;;15.70;;
8397;SDS011;4236;54.504;9.588;2023-04-25T02:03:40;18.13;;;14.70;;
8397;SDS011;4236;54.504;9.588;2023-04-25T02:06:08;21.10;;;13.70;;
8397;SDS011;4236;54.504;9.588;2023-04-25T02:08:36;22.67;;;15.17;;
8397;SDS011;4236;54.504;9.588;2023-04-25T02:11:03;23.90;;;14.20;;
8397;SDS011;4236;54.504;9.588;2023-04-25T02:13:32;28.23;;;14.87;;
8397;SDS011;4236;54.504;9.588;2023-04-25T02:16:00;22.60;;;14.40;;
8397;SDS011;4236;54.504;9.588;2023-04-25T02:18:28;17.60;;;14.57;;
8397;SDS011;4236;54.504;9.588;2023-04-25T02:20:56;25.23;;;14.47;;
8397;SDS011;4236;54.504;9.588;2023-04-25T02:23:23;25.13;;;15.50;;
8397;SDS011;4236;54.504;9.588;2023-04-25T02:25:51;21.73;;;15.77;;
8397;SDS011;4236;54.504;9.588;2023-04-25T02:28:21;21.47;;;14.50;;
8397;SDS011;4236;54.504;9.588;2023-04-25T02:30:51;18.37;;;14.50;;
8397;SDS011;4236;54.504;9.588;2023-04-25T02:33:19;21.10;;;15.37;;
8397;SDS011;4236;54.504;9.588;2023-04-25T02:35:47;15.93;;;14.27;;
8397;SDS011;4236;54.504;9.588;2023-04-25T02:38:14;16.30;;;14.00;;
8397;SDS011;4236;54.504;9.588;2023-04-25T02:40:42;17.40;;;13.50;;
8397;SDS011;4236;54.504;9.588;2023-04-25T02:43:10;18.00;;;14.07;;
8397;SDS011;4236;54.504;9.588;2023-04-25T02:45:38;26.90;;;14.90;;
8397;SDS011;4236;54.504;9.588;2023-04-25T02:48:07;23.20;;;14.87;;
8397;SDS011;4236;54.504;9.588;2023-04-25T02:50:35;15.77;;;14.27;;
8397;SDS011;4236;54.504;9.588;2023-04-25T02:53:02;29.07;;;15.10;;
8397;SDS011;4236;54.504;9.588;2023-04-25T02:55:30;27.67;;;15.07;;
8397;SDS011;4236;54.504;9.588;2023-04-25T02:57:58;25.57;;;14.40;;
8397;SDS011;4236;54.504;9.588;2023-04-25T03:00:25;16.53;;;14.87;;
8397;SDS011;4236;54.504;9.588;2023-04-25T03:02:53;19.43;;;14.87;;
8397;SDS011;4236;54.504;9.588;2023-04-25T03:05:23;21.90;;;14.90;;
8397;SDS011;4236;54.504;9.588;2023-04-25T03:07:50;19.50;;;14.07;;
8397;SDS011;4236;54.504;9.588;2023-04-25T03:10:18;15.63;;;14.00;;
8397;SDS011;4236;54.504;9.588;2023-04-25T03:12:46;27.73;;;14.63;;
8397;SDS011;4236;54.504;9.588;2023-04-25T03:15:13;20.67;;;15.43;;
8397;SDS011;4236;54.504;9.588;2023-04-25T03:17:42;18.73;;;15.83;;
8397;SDS011;4236;54.504;9.588;2023-04-25T03:20:11;18.90;;;14.60;;
8397;SDS011;4236;54.504;9.588;2023-04-25T03:22:40;16.10;;;13.63;;
8397;SDS011;4236;54.504;9.588;2023-04-25T03:25:08;20.37;;;14.00;;
8397;SDS011;4236;54.504;9.588;2023-04-25T03:27:35;15.57;;;13.97;;
8397;SDS011;4236;54.504;9.588;2023-04-25T03:30:03;13.73;;;12.40;;
8397;SDS011;4236;54.504;9.588;2023-04-25T03:32:32;21.67;;;13.60;;
8397;SDS011;4236;54.504;9.588;2023-04-25T03:35:00;18.67;;;14.40;;
8397;SDS011;4236;54.504;9.588;2023-04-25T03:37:28;18.13;;;13.33;;
8397;SDS011;4236;54.504;9.588;2023-04-25T03:39:57;24.80;;;13.10;;
8397;SDS011;4236;54.504;9.588;2023-04-25T03:42:24;17.07;;;12.70;;
8397;SDS011;4236;54.504;9.588;2023-04-25T03:44:52;20.73;;;12.80;;
8397;SDS011;4236;54.504;9.588;2023-04-25T03:47:20;15.17;;;12.70;;
8397;SDS011;4236;54.504;9.588;2023-04-25T03:49:47;28.83;;;13.30;;
8397;SDS011;4236;54.504;9.588;2023-04-25T03:52:17;19.73;;;12.80;;
8397;SDS011;4236;54.504;9.588;2023-04-25T03:54:45;14.67;;;12.80;;
8397;SDS011;4236;54.504;9.588;2023-04-25T03:57:14;14.37;;;12.73;;
8397;SDS011;4236;54.504;9.588;2023-04-25T03:59:42;15.00;;;12.07;;
8397;SDS011;4236;54.504;9.588;2023-04-25T04:02:10;16.40;;;13.60;;
8397;SDS011;4236;54.504;9.588;2023-04-25T04:04:38;16.07;;;13.60;;
8397;SDS011;4236;54.504;9.588;2023-04-25T04:07:06;19.50;;;14.17;;
8397;SDS011;4236;54.504;9.588;2023-04-25T04:09:33;20.83;;;14.00;;
8397;SDS011;4236;54.504;9.588;2023-04-25T04:12:01;14.87;;;12.70;;
8397;SDS011;4236;54.504;9.588;2023-04-25T04:14:30;17.10;;;12.43;;
8397;SDS011;4236;54.504;9.588;2023-04-25T04:16:58;12.83;;;11.50;;
8397;SDS011;4236;54.504;9.588;2023-04-25T04:19:25;12.97;;;11.57;;
8397;SDS011;4236;54.504;9.588;2023-04-25T04:21:53;12.90;;;11.37;;
8397;SDS011;4236;54.504;9.588;2023-04-25T04:24:21;19.87;;;14.40;;
8397;SDS011;4236;54.504;9.588;2023-04-25T04:26:49;26.53;;;13.27;;
8397;SDS011;4236;54.504;9.588;2023-04-25T04:29:16;15.20;;;11.87;;
8397;SDS011;4236;54.504;9.588;2023-04-25T04:31:49;14.10;;;12.60;;
8397;SDS011;4236;54.504;9.588;2023-04-25T04:34:18;22.37;;;13.40;;
8397;SDS011;4236;54.504;9.588;2023-04-25T04:36:46;12.67;;;11.60;;
8397;SDS011;4236;54.504;9.588;2023-04-25T04:39:14;19.53;;;12.80;;
8397;SDS011;4236;54.504;9.588;2023-04-25T04:41:41;17.97;;;13.37;;
8397;SDS011;4236;54.504;9.588;2023-04-25T04:44:09;16.87;;;13.00;;
8397;SDS011;4236;54.504;9.588;2023-04-25T04:46:37;17.37;;;13.57;;
8397;SDS011;4236;54.504;9.588;2023-04-25T04:49:09;14.03;;;12.93;;
8397;SDS011;4236;54.504;9.588;2023-04-25T04:51:38;14.57;;;13.07;;
8397;SDS011;4236;54.504;9.588;2023-04-25T04:54:06;13.57;;;12.20;;
8397;SDS011;4236;54.504;9.588;2023-04-25T04:56:34;13.10;;;11.93;;
8397;SDS011;4236;54.504;9.588;2023-04-25T04:59:01;17.63;;;12.37;;
8397;SDS011;4236;54.504;9.588;2023-04-25T05:01:29;12.43;;;11.23;;
8397;SDS011;4236;54.504;9.588;2023-04-25T05:03:57;19.57;;;13.03;;
8397;SDS011;4236;54.504;9.588;2023-04-25T05:06:29;16.10;;;12.63;;
8397;SDS011;4236;54.504;9.588;2023-04-25T05:08:57;12.30;;;10.53;;
8397;SDS011;4236;54.504;9.588;2023-04-25T05:11:26;16.80;;;11.00;;
8397;SDS011;4236;54.504;9.588;2023-04-25T05:13:53;18.40;;;10.70;;
8397;SDS011;4236;54.504;9.588;2023-04-25T05:16:21;15.67;;;10.63;;
8397;SDS011;4236;54.504;9.588;2023-04-25T05:18:49;14.10;;;10.13;;
8397;SDS011;4236;54.504;9.588;2023-04-25T05:21:17;19.93;;;11.73;;
8397;SDS011;4236;54.504;9.588;2023-04-25T05:23:46;24.17;;;10.67;;
8397;SDS011;4236;54.504;9.588;2023-04-25T05:26:14;19.53;;;10.53;;
8397;SDS011;4236;54.504;9.588;2023-04-25T05:28:42;11.87;;;9.77;;
8397;SDS011;4236;54.504;9.588;2023-04-25T05:31:10;14.90;;;11.10;;
8397;SDS011;4236;54.504;9.588;2023-04-25T05:33:37;12.40;;;11.17;;
8397;SDS011;4236;54.504;9.588;2023-04-25T05:36:06;14.83;;;10.60;;
8397;SDS011;4236;54.504;9.588;2023-04-25T05:38:34;14.87;;;10.27;;
8397;SDS011;4236;54.504;9.588;2023-04-25T05:41:03;11.90;;;10.63;;
8397;SDS011;4236;54.504;9.588;2023-04-25T05:43:31;11.80;;;10.53;;
8397;SDS011;4236;54.504;9.588;2023-04-25T05:45:59;12.40;;;9.60;;
8397;SDS011;4236;54.504;9.588;2023-04-25T05:48:27;14.10;;;10.87;;
8397;SDS011;4236;54.504;9.588;2023-04-25T05:50:54;14.20;;;11.20;;
8397;SDS011;4236;54.504;9.588;2023-04-25T05:53:22;14.27;;;10.40;;
8397;SDS011;4236;54.504;9.588;2023-04-25T05:55:49;16.00;;;10.43;;
8397;SDS011;4236;54.504;9.588;2023-04-25T05:58:18;19.83;;;10.40;;
8397;SDS011;4236;54.504;9.588;2023-04-25T06:00:46;11.30;;;9.70;;
8397;SDS011;4236;54.504;9.588;2023-04-25T06:03:14;11.37;;;10.23;;
8397;SDS011;4236;54.504;9.588;2023-04-25T06:05:45;11.57;;;10.43;;
8397;SDS011;4236;54.504;9.588;2023-04-25T06:08:13;13.10;;;10.77;;
8397;SDS011;4236;54.504;9.588;2023-04-25T06:10:41;11.43;;;10.20;;
8397;SDS011;4236;54.504;9.588;2023-04-25T06:13:09;10.50;;;9.50;;
8397;SDS011;4236;54.504;9.588;2023-04-25T06:15:38;12.53;;;9.80;;
8397;SDS011;4236;54.504;9.588;2023-04-25T06:18:06;21.57;;;10.10;;
8397;SDS011;4236;54.504;9.588;2023-04-25T06:20:34;18.77;;;10.40;;
8397;SDS011;4236;54.504;9.588;2023-04-25T06:23:01;13.23;;;10.27;;
8397;SDS011;4236;54.504;9.588;2023-04-25T06:25:29;14.07;;;10.50;;
8397;SDS011;4236;54.504;9.588;2023-04-25T06:27:57;14.13;;;10.50;;
8397;SDS011;4236;54.504;9.588;2023-04-25T06:30:25;15.73;;;11.23;;
8397;SDS011;4236;54.504;9.588;2023-04-25T06:32:54;20.73;;;11.33;;
8397;SDS011;4236;54.504;9.588;2023-04-25T06:35:22;11.80;;;10.27;;
8397;SDS011;4236;54.504;9.588;2023-04-25T06:37:50;15.67;;;10.10;;
8397;SDS011;4236;54.504;9.588;2023-04-25T06:40:18;12.97;;;10.53;;
8397;SDS011;4236;54.504;9.588;2023-04-25T06:42:45;14.30;;;9.63;;
8397;SDS011;4236;54.504;9.588;2023-04-25T06:45:13;9.87;;;8.87;;
8397;SDS011;4236;54.504;9.588;2023-04-25T06:47:41;12.60;;;10.13;;
8397;SDS011;4236;54.504;9.588;2023-04-25T06:50:10;14.90;;;9.10;;
8397;SDS011;4236;54.504;9.588;2023-04-25T06:52:38;13.00;;;9.73;;
8397;SDS011;4236;54.504;9.588;2023-04-25T06:55:05;12.27;;;10.97;;
8397;SDS011;4236;54.504;9.588;2023-04-25T06:57:34;11.00;;;10.00;;
8397;SDS011;4236;54.504;9.588;2023-04-25T07:00:01;11.87;;;10.87;;
8397;SDS011;4236;54.504;9.588;2023-04-25T07:02:31;13.80;;;11.33;;
8397;SDS011;4236;54.504;9.588;2023-04-25T07:04:59;13.80;;;9.90;;
8397;SDS011;4236;54.504;9.588;2023-04-25T07:07:28;11.90;;;10.70;;
8397;SDS011;4236;54.504;9.588;2023-04-25T07:09:56;11.37;;;9.10;;
8397;SDS011;4236;54.504;9.588;2023-04-25T07:12:24;11.13;;;9.53;;
8397;SDS011;4236;54.504;9.588;2023-04-25T07:14:51;19.83;;;10.30;;
8397;SDS011;4236;54.504;9.588;2023-04-25T07:17:19;12.37;;;8.77;;
8397;SDS011;4236;54.504;9.588;2023-04-25T07:19:46;11.93;;;8.03;;
8397;SDS011;4236;54.504;9.588;2023-04-25T07:22:14;12.00;;;9.93;;
8397;SDS011;4236;54.504;9.588;2023-04-25T07:24:43;12.83;;;9.40;;
8397;SDS011;4236;54.504;9.588;2023-04-25T07:27:14;12.63;;;9.60;;
8397;SDS011;4236;54.504;9.588;2023-04-25T07:29:42;13.13;;;9.90;;
8397;SDS011;4236;54.504;9.588;2023-04-25T07:32:10;19.57;;;10.00;;
8397;SDS011;4236;54.504;9.588;2023-04-25T07:34:40;12.97;;;9.20;;
8397;SDS011;4236;54.504;9.588;2023-04-25T07:37:07;10.17;;;9.17;;
8397;SDS011;4236;54.504;9.588;2023-04-25T07:39:35;13.80;;;8.60;;
8397;SDS011;4236;54.504;9.588;2023-04-25T07:42:04;21.20;;;9.30;;
8397;SDS011;4236;54.504;9.588;2023-04-25T07:44:34;14.33;;;8.93;;
8397;SDS011;4236;54.504;9.588;2023-04-25T07:47:05;16.10;;;8.90;;
8397;SDS011;4236;54.504;9.588;2023-04-25T07:49:34;12.83;;;8.80;;
8397;SDS011;4236;54.504;9.588;2023-04-25T07:52:02;12.10;;;8.30;;
8397;SDS011;4236;54.504;9.588;2023-04-25T07:54:31;11.03;;;7.77;;
8397;SDS011;4236;54.504;9.588;2023-04-25T07:56:59;18.07;;;8.30;;
8397;SDS011;4236;54.504;9.588;2023-04-25T07:59:28;14.77;;;8.70;;
8397;SDS011;4236;54.504;9.588;2023-04-25T08:01:56;12.70;;;7.87;;
8397;SDS011;4236;54.504;9.588;2023-04-25T08:04:24;11.47;;;8.40;;
8397;SDS011;4236;54.504;9.588;2023-04-25T08:06:52;14.20;;;8.10;;
8397;SDS011;4236;54.504;9.588;2023-04-25T08:09:20;12.40;;;7.03;;
8397;SDS011;4236;54.504;9.588;2023-04-25T08:11:48;7.63;;;7.07;;
8397;SDS011;4236;54.504;9.588;2023-04-25T08:14:16;14.40;;;7.93;;
8397;SDS011;4236;54.504;9.588;2023-04-25T08:16:45;18.57;;;8.40;;
8397;SDS011;4236;54.504;9.588;2023-04-25T08:19:13;9.50;;;6.40;;
8397;SDS011;4236;54.504;9.588;2023-04-25T08:21:41;13.17;;;7.67;;
8397;SDS011;4236;54.504;9.588;2023-04-25T08:24:08;14.50;;;7.83;;
8397;SDS011;4236;54.504;9.588;2023-04-25T08:26:36;11.13;;;8.17;;
8397;SDS011;4236;54.504;9.588;2023-04-25T08:29:05;11.37;;;9.00;;
8397;SDS011;4236;54.504;9.588;2023-04-25T08:31:32;11.67;;;8.83;;
8397;SDS011;4236;54.504;9.588;2023-04-25T08:34:02;15.03;;;7.83;;
8397;SDS011;4236;54.504;9.588;2023-04-25T08:36:29;12.00;;;8.13;;
8397;SDS011;4236;54.504;9.588;2023-04-25T08:39:05;15.03;;;8.33;;
8397;SDS011;4236;54.504;9.588;2023-04-25T08:41:33;10.73;;;8.53;;
8397;SDS011;4236;54.504;9.588;2023-04-25T08:44:03;13.53;;;8.43;;
8397;SDS011;4236;54.504;9.588;2023-04-25T08:46:32;12.20;;;8.83;;
8397;SDS011;4236;54.504;9.588;2023-04-25T08:49:02;14.13;;;8.00;;
8397;SDS011;4236;54.504;9.588;2023-04-25T08:51:31;13.53;;;7.17;;
8397;SDS011;4236;54.504;9.588;2023-04-25T08:54:01;14.40;;;7.60;;
8397;SDS011;4236;54.504;9.588;2023-04-25T08:56:56;10.33;;;7.63;;
8397;SDS011;4236;54.504;9.588;2023-04-25T08:59:25;9.30;;;6.10;;
8397;SDS011;4236;54.504;9.588;2023-04-25T09:01:53;9.73;;;7.03;;
8397;SDS011;4236;54.504;9.588;2023-04-25T09:04:24;7.60;;;6.83;;
8397;SDS011;4236;54.504;9.588;2023-04-25T09:06:52;14.90;;;7.73;;
8397;SDS011;4236;54.504;9.588;2023-04-25T09:09:20;8.37;;;7.57;;
8397;SDS011;4236;54.504;9.588;2023-04-25T09:11:47;13.27;;;8.70;;
8397;SDS011;4236;54.504;9.588;2023-04-25T09:14:16;13.27;;;8.20;;
8397;SDS011;4236;54.504;9.588;2023-04-25T09:17:02;14.90;;;7.90;;
8397;SDS011;4236;54.504;9.588;2023-04-25T09:19:33;12.27;;;9.27;;
8397;SDS011;4236;54.504;9.588;2023-04-25T09:22:07;15.00;;;7.23;;
8397;SDS011;4236;54.504;9.588;2023-04-25T09:24:35;14.47;;;7.30;;
8397;SDS011;4236;54.504;9.588;2023-04-25T09:27:05;14.67;;;7.83;;
8397;SDS011;4236;54.504;9.588;2023-04-25T09:29:34;16.27;;;7.23;;
8397;SDS011;4236;54.504;9.588;2023-04-25T09:32:10;10.43;;;7.77;;
8397;SDS011;4236;54.504;9.588;2023-04-25T09:34:41;11.97;;;8.60;;
8397;SDS011;4236;54.504;9.588;2023-04-25T09:37:10;7.23;;;6.73;;
8397;SDS011;4236;54.504;9.588;2023-04-25T09:39:39;10.97;;;6.47;;
8397;SDS011;4236;54.504;9.588;2023-04-25T09:42:07;8.30;;;6.87;;
8397;SDS011;4236;54.504;9.588;2023-04-25T09:44:36;8.37;;;7.53;;
8397;SDS011;4236;54.504;9.588;2023-04-25T09:47:04;7.77;;;7.37;;
8397;SDS011;4236;54.504;9.588;2023-04-25T09:49:38;10.93;;;8.03;;
8397;SDS011;4236;54.504;9.588;2023-04-25T09:52:08;19.63;;;8.33;;
8397;SDS011;4236;54.504;9.588;2023-04-25T09:54:40;10.93;;;8.30;;
8397;SDS011;4236;54.504;9.588;2023-04-25T09:57:10;9.03;;;7.33;;
8397;SDS011;4236;54.504;9.588;2023-04-25T09:59:39;15.63;;;7.27;;
8397;SDS011;4236;54.504;9.588;2023-04-25T10:02:10;10.50;;;7.50;;
8397;SDS011;4236;54.504;9.588;2023-04-25T10:04:39;15.50;;;8.27;;
8397;SDS011;4236;54.504;9.588;2023-04-25T10:07:10;16.00;;;7.67;;
8397;SDS011;4236;54.504;9.588;2023-04-25T10:09:39;13.83;;;8.13;;
8397;SDS011;4236;54.504;9.588;2023-04-25T10:12:07;11.10;;;8.00;;
8397;SDS011;4236;54.504;9.588;2023-04-25T10:14:35;11.90;;;9.20;;
8397;SDS011;4236;54.504;9.588;2023-04-25T10:17:03;9.50;;;7.93;;
8397;SDS011;4236;54.504;9.588;2023-04-25T10:19:30;15.20;;;8.60;;
8397;SDS011;4236;54.504;9.588;2023-04-25T10:22:03;15.43;;;7.87;;
8397;SDS011;4236;54.504;9.588;2023-04-25T10:24:36;18.33;;;6.67;;
8397;SDS011;4236;54.504;9.588;2023-04-25T10:27:06;8.60;;;6.97;;
8397;SDS011;4236;54.504;9.588;2023-04-25T10:29:34;9.77;;;6.77;;
8397;SDS011;4236;54.504;9.588;2023-04-25T10:32:02;10.37;;;7.00;;
8397;SDS011;4236;54.504;9.588;2023-04-25T10:34:40;7.13;;;6.63;;
8397;SDS011;4236;54.504;9.588;2023-04-25T10:37:10;15.20;;;8.57;;
8397;SDS011;4236;54.504;9.588;2023-04-25T10:39:39;10.63;;;8.47;;
8397;SDS011;4236;54.504;9.588;2023-04-25T10:42:08;8.30;;;7.60;;
8397;SDS011;4236;54.504;9.588;2023-04-25T10:44:36;10.47;;;9.10;;
8397;SDS011;4236;54.504;9.588;2023-04-25T10:47:06;11.73;;;8.63;;
8397;SDS011;4236;54.504;9.588;2023-04-25T10:49:36;10.13;;;7.70;;
8397;SDS011;4236;54.504;9.588;2023-04-25T10:52:15;11.73;;;8.70;;
8397;SDS011;4236;54.504;9.588;2023-04-25T10:54:49;12.40;;;8.40;;
8397;SDS011;4236;54.504;9.588;2023-04-25T10:57:28;20.13;;;8.27;;
8397;SDS011;4236;54.504;9.588;2023-04-25T10:59:58;8.73;;;7.77;;
8397;SDS011;4236;54.504;9.588;2023-04-25T11:02:27;10.03;;;8.17;;
8397;SDS011;4236;54.504;9.588;2023-04-25T11:04:55;9.10;;;7.40;;
8397;SDS011;4236;54.504;9.588;2023-04-25T11:07:25;11.37;;;7.43;;
8397;SDS011;4236;54.504;9.588;2023-04-25T11:10:03;12.60;;;7.30;;
8397;SDS011;4236;54.504;9.588;2023-04-25T11:12:31;10.10;;;7.07;;
8397;SDS011;4236;54.504;9.588;2023-04-25T11:15:00;9.50;;;7.40;;
8397;SDS011;4236;54.504;9.588;2023-04-25T11:17:28;9.70;;;7.67;;
8397;SDS011;4236;54.504;9.588;2023-04-25T11:19:56;15.20;;;8.87;;
8397;SDS011;4236;54.504;9.588;2023-04-25T11:22:26;9.63;;;8.90;;
8397;SDS011;4236;54.504;9.588;2023-04-25T11:24:54;14.10;;;8.67;;
8397;SDS011;4236;54.504;9.588;2023-04-25T11:27:23;8.30;;;7.50;;
8397;SDS011;4236;54.504;9.588;2023-04-25T11:29:52;8.90;;;8.10;;
8397;SDS011;4236;54.504;9.588;2023-04-25T11:32:20;12.80;;;9.77;;
8397;SDS011;4236;54.504;9.588;2023-04-25T11:34:49;9.80;;;8.80;;
8397;SDS011;4236;54.504;9.588;2023-04-25T11:37:17;17.03;;;9.30;;
8397;SDS011;4236;54.504;9.588;2023-04-25T11:39:45;14.50;;;8.30;;
8397;SDS011;4236;54.504;9.588;2023-04-25T11:42:13;8.10;;;7.13;;
8397;SDS011;4236;54.504;9.588;2023-04-25T11:44:42;12.67;;;7.70;;
8397;SDS011;4236;54.504;9.588;2023-04-25T11:47:10;10.60;;;7.83;;
8397;SDS011;4236;54.504;9.588;2023-04-25T11:49:38;9.70;;;8.43;;
8397;SDS011;4236;54.504;9.588;2023-04-25T11:52:06;11.33;;;7.77;;
8397;SDS011;4236;54.504;9.588;2023-04-25T11:54:35;15.23;;;7.90;;
8397;SDS011;4236;54.504;9.588;2023-04-25T11:57:03;10.50;;;7.43;;
8397;SDS011;4236;54.504;9.588;2023-04-25T11:59:31;9.80;;;8.30;;
8397;SDS011;4236;54.504;9.588;2023-04-25T12:02:00;8.80;;;7.93;;
8397;SDS011;4236;54.504;9.588;2023-04-25T12:04:29;10.97;;;8.30;;
8397;SDS011;4236;54.504;9.588;2023-04-25T12:06:58;19.83;;;8.07;;
8397;SDS011;4236;54.504;9.588;2023-04-25T12:09:28;9.03;;;7.90;;
8397;SDS011;4236;54.504;9.588;2023-04-25T12:11:57;11.83;;;7.80;;
8397;SDS011;4236;54.504;9.588;2023-04-25T12:14:29;7.57;;;6.60;;
8397;SDS011;4236;54.504;9.588;2023-04-25T12:16:59;7.10;;;6.40;;
8397;SDS011;4236;54.504;9.588;2023-04-25T12:19:31;10.13;;;7.30;;
8397;SDS011;4236;54.504;9.588;2023-04-25T12:22:00;7.23;;;6.53;;
8397;SDS011;4236;54.504;9.588;2023-04-25T12:24:29;9.10;;;6.90;;
8397;SDS011;4236;54.504;9.588;2023-04-25T12:27:05;12.50;;;7.23;;
8397;SDS011;4236;54.504;9.588;2023-04-25T12:29:34;7.40;;;6.63;;
8397;SDS011;4236;54.504;9.588;2023-04-25T12:32:06;11.10;;;7.97;;
8397;SDS011;4236;54.504;9.588;2023-04-25T12:34:34;10.90;;;7.53;;
8397;SDS011;4236;54.504;9.588;2023-04-25T12:37:02;7.03;;;6.37;;
8397;SDS011;4236;54.504;9.588;2023-04-25T12:39:30;10.90;;;7.37;;
8397;SDS011;4236;54.504;9.588;2023-04-25T12:41:57;10.13;;;6.70;;
8397;SDS011;4236;54.504;9.588;2023-04-25T12:44:26;17.03;;;8.70;;
8397;SDS011;4236;54.504;9.588;2023-04-25T12:46:53;11.83;;;8.10;;
8397;SDS011;4236;54.504;9.588;2023-04-25T12:49:23;14.03;;;7.83;;
8397;SDS011;4236;54.504;9.588;2023-04-25T12:51:51;17.33;;;7.37;;
8397;SDS011;4236;54.504;9.588;2023-04-25T12:54:19;9.70;;;7.60;;
8397;SDS011;4236;54.504;9.588;2023-04-25T12:56:47;8.23;;;7.30;;
8397;SDS011;4236;54.504;9.588;2023-04-25T12:59:14;49.50;;;46.57;;
8397;SDS011;4236;54.504;9.588;2023-04-25T13:01:42;25.20;;;23.60;;
8397;SDS011;4236;54.504;9.588;2023-04-25T13:04:10;20.33;;;18.73;;
8397;SDS011;4236;54.504;9.588;2023-04-25T13:06:39;16.63;;;14.97;;
8397;SDS011;4236;54.504;9.588;2023-04-25T13:09:07;11.80;;;10.43;;
8397;SDS011;4236;54.504;9.588;2023-04-25T13:11:35;11.43;;;10.60;;
8397;SDS011;4236;54.504;9.588;2023-04-25T13:14:04;13.47;;;9.70;;
8397;SDS011;4236;54.504;9.588;2023-04-25T13:16:32;9.70;;;8.40;;
8397;SDS011;4236;54.504;9.588;2023-04-25T13:19:00;10.93;;;9.63;;
8397;SDS011;4236;54.504;9.588;2023-04-25T13:21:29;32.13;;;30.17;;
8397;SDS011;4236;54.504;9.588;2023-04-25T13:23:59;26.57;;;24.90;;
8397;SDS011;4236;54.504;9.588;2023-04-25T13:26:27;13.50;;;12.47;;
8397;SDS011;4236;54.504;9.588;2023-04-25T13:28:54;17.93;;;14.97;;
8397;SDS011;4236;54.504;9.588;2023-04-25T13:31:23;15.20;;;14.00;;
8397;SDS011;4236;54.504;9.588;2023-04-25T13:33:51;14.53;;;13.13;;
8397;SDS011;4236;54.504;9.588;2023-04-25T13:36:19;11.53;;;10.50;;
8397;SDS011;4236;54.504;9.588;2023-04-25T13:38:47;14.33;;;11.23;;
8397;SDS011;4236;54.504;9.588;2023-04-25T13:41:17;18.10;;;16.93;;
8397;SDS011;4236;54.504;9.588;2023-04-25T13:43:45;26.90;;;25.63;;
8397;SDS011;4236;54.504;9.588;2023-04-25T13:46:15;22.87;;;21.43;;
8397;SDS011;4236;54.504;9.588;2023-04-25T13:48:45;21.63;;;20.37;;
8397;SDS011;4236;54.504;9.588;2023-04-25T13:51:16;20.70;;;19.37;;
8397;SDS011;4236;54.504;9.588;2023-04-25T13:53:44;19.07;;;17.67;;
8397;SDS011;4236;54.504;9.588;2023-04-25T13:56:12;17.60;;;16.40;;
8397;SDS011;4236;54.504;9.588;2023-04-25T13:58:41;12.40;;;11.40;;
8397;SDS011;4236;54.504;9.588;2023-04-25T14:01:09;12.40;;;11.47;;
8397;SDS011;4236;54.504;9.588;2023-04-25T14:03:37;13.13;;;11.10;;
8397;SDS011;4236;54.504;9.588;2023-04-25T14:06:05;11.40;;;10.27;;
8397;SDS011;4236;54.504;9.588;2023-04-25T14:08:33;11.10;;;10.13;;
8397;SDS011;4236;54.504;9.588;2023-04-25T14:11:01;24.17;;;10.80;;
8397;SDS011;4236;54.504;9.588;2023-04-25T14:13:29;11.57;;;10.53;;
8397;SDS011;4236;54.504;9.588;2023-04-25T14:15:58;13.63;;;10.90;;
8397;SDS011;4236;54.504;9.588;2023-04-25T14:18:26;10.57;;;9.87;;
8397;SDS011;4236;54.504;9.588;2023-04-25T14:20:53;11.77;;;10.60;;
8397;SDS011;4236;54.504;9.588;2023-04-25T14:23:21;12.43;;;10.90;;
8397;SDS011;4236;54.504;9.588;2023-04-25T14:25:49;12.17;;;9.83;;
8397;SDS011;4236;54.504;9.588;2023-04-25T14:28:16;11.93;;;10.83;;
8397;SDS011;4236;54.504;9.588;2023-04-25T14:30:44;11.07;;;10.00;;
8397;SDS011;4236;54.504;9.588;2023-04-25T14:33:14;11.27;;;10.23;;
8397;SDS011;4236;54.504;9.588;2023-04-25T14:35:42;10.17;;;9.03;;
8397;SDS011;4236;54.504;9.588;2023-04-25T14:38:09;11.23;;;10.03;;
8397;SDS011;4236;54.504;9.588;2023-04-25T14:40:37;29.83;;;10.67;;
8397;SDS011;4236;54.504;9.588;2023-04-25T14:43:05;16.13;;;8.90;;
8397;SDS011;4236;54.504;9.588;2023-04-25T14:45:33;18.67;;;10.23;;
8397;SDS011;4236;54.504;9.588;2023-04-25T14:48:01;12.17;;;9.93;;
8397;SDS011;4236;54.504;9.588;2023-04-25T14:50:30;10.73;;;9.00;;
8397;SDS011;4236;54.504;9.588;2023-04-25T14:52:58;8.97;;;8.17;;
8397;SDS011;4236;54.504;9.588;2023-04-25T14:55:26;13.20;;;8.60;;
8397;SDS011;4236;54.504;9.588;2023-04-25T14:57:54;12.43;;;8.30;;
8397;SDS011;4236;54.504;9.588;2023-04-25T15:00:23;14.97;;;9.20;;
8397;SDS011;4236;54.504;9.588;2023-04-25T15:02:51;13.80;;;10.27;;
8397;SDS011;4236;54.504;9.588;2023-04-25T15:05:19;9.77;;;8.07;;